createdAt,value
2018-05-13T00:01:26.403Z,9.77
2018-05-13T00:03:53.905Z,9.00
2018-05-13T00:06:21.426Z,9.70
2018-05-13T00:08:48.913Z,9.93
2018-05-13T00:11:17.191Z,9.87
2018-05-13T00:13:44.679Z,9.47
2018-05-13T00:16:12.197Z,9.53
2018-05-13T00:18:39.687Z,9.53
2018-05-13T00:21:07.226Z,9.10
2018-05-13T00:23:34.713Z,9.03
2018-05-13T00:26:02.214Z,10.00
2018-05-13T00:28:29.729Z,10.30
2018-05-13T00:30:57.232Z,10.00
2018-05-13T00:33:24.749Z,9.60
2018-05-13T00:35:53.002Z,10.13
2018-05-13T00:38:20.536Z,10.70
2018-05-13T00:40:48.029Z,9.80
2018-05-13T00:43:15.564Z,10.67
2018-05-13T00:45:43.065Z,9.80
2018-05-13T00:48:10.595Z,9.40
2018-05-13T00:50:38.135Z,9.30
2018-05-13T00:53:05.623Z,8.80
2018-05-13T00:55:33.122Z,8.23
2018-05-13T00:58:00.641Z,8.20
2018-05-13T01:00:28.127Z,7.70
2018-05-13T01:02:55.654Z,9.10
2018-05-13T01:05:23.142Z,8.20
2018-05-13T01:07:50.709Z,8.60
2018-05-13T01:10:18.198Z,8.43
2018-05-13T01:12:45.715Z,8.23
2018-05-13T01:15:13.201Z,8.80
2018-05-13T01:17:40.731Z,9.77
2018-05-13T01:20:08.239Z,8.70
2018-05-13T01:22:35.723Z,9.47
2018-05-13T01:25:03.237Z,9.57
2018-05-13T01:27:30.728Z,9.90
2018-05-13T01:29:59.019Z,9.37
2018-05-13T01:35:19.957Z,9.47
2018-05-13T01:37:47.445Z,9.53
2018-05-13T01:40:15.732Z,10.10
2018-05-13T01:42:43.210Z,8.70
2018-05-13T01:45:10.753Z,8.57
2018-05-13T01:47:38.242Z,7.23
2018-05-13T01:50:05.769Z,6.13
2018-05-13T01:52:33.262Z,4.40
2018-05-13T01:55:00.774Z,4.23
2018-05-13T01:57:28.262Z,4.73
2018-05-13T01:59:55.777Z,4.83
2018-05-13T02:02:23.266Z,4.30
2018-05-13T02:04:50.777Z,3.90
2018-05-13T02:07:18.298Z,4.40
2018-05-13T02:09:45.790Z,6.30
2018-05-13T02:12:13.308Z,6.93
2018-05-13T02:14:40.794Z,6.33
2018-05-13T02:17:08.314Z,5.63
2018-05-13T02:19:36.565Z,4.90
2018-05-13T02:22:04.120Z,5.37
2018-05-13T02:24:31.605Z,5.90
2018-05-13T02:26:59.133Z,5.00
2018-05-13T02:29:26.625Z,5.10
2018-05-13T02:31:54.148Z,4.73
2018-05-13T02:34:22.419Z,4.00
2018-05-13T02:36:49.943Z,4.93
2018-05-13T02:39:17.435Z,5.17
2018-05-13T02:41:44.957Z,4.00
2018-05-13T02:44:12.437Z,4.00
2018-05-13T02:46:39.950Z,4.70
2018-05-13T02:49:07.431Z,4.97
2018-05-13T02:51:34.969Z,5.93
2018-05-13T02:54:02.490Z,5.30
2018-05-13T02:56:29.979Z,6.10
2018-05-13T02:58:57.497Z,7.03
2018-05-13T03:01:24.981Z,7.10
2018-05-13T03:03:52.511Z,6.57
2018-05-13T03:06:20.929Z,6.43
2018-05-13T03:08:48.444Z,5.17
2018-05-13T03:11:15.934Z,4.23
2018-05-13T03:13:43.445Z,4.50
2018-05-13T03:16:10.936Z,3.90
2018-05-13T03:18:38.457Z,4.63
2018-05-13T03:21:05.937Z,4.50
2018-05-13T03:23:33.465Z,4.80
2018-05-13T03:26:01.484Z,4.43
2018-05-13T03:28:29.059Z,4.13
2018-05-13T03:30:56.549Z,4.67
2018-05-13T03:33:24.069Z,4.00
2018-05-13T03:35:51.553Z,4.03
2018-05-13T03:38:19.797Z,4.17
2018-05-13T03:40:47.310Z,4.10
2018-05-13T03:43:15.567Z,3.97
2018-05-13T03:45:43.081Z,4.93
2018-05-13T03:48:11.337Z,4.50
2018-05-13T03:50:38.858Z,4.10
2018-05-13T03:53:06.351Z,4.27
2018-05-13T03:55:33.957Z,4.37
2018-05-13T03:58:01.383Z,5.00
2018-05-13T04:00:28.897Z,4.10
2018-05-13T04:02:56.386Z,4.97
2018-05-13T04:05:24.669Z,4.30
2018-05-13T04:11:17.889Z,5.00
2018-05-13T04:13:57.867Z,4.70
2018-05-13T04:16:26.167Z,6.20
2018-05-13T04:18:53.648Z,5.10
2018-05-13T04:21:21.161Z,6.20
2018-05-13T04:23:48.655Z,5.17
2018-05-13T04:26:16.918Z,6.07
2018-05-13T04:28:44.434Z,6.23
2018-05-13T04:31:11.968Z,6.80
2018-05-13T04:33:39.496Z,6.83
2018-05-13T04:36:06.988Z,6.70
2018-05-13T04:38:34.501Z,6.60
2018-05-13T04:41:02.751Z,6.20
2018-05-13T04:43:30.267Z,7.47
2018-05-13T04:45:58.514Z,7.10
2018-05-13T04:48:26.049Z,7.70
2018-05-13T04:50:53.544Z,7.80
2018-05-13T04:53:21.062Z,7.60
2018-05-13T04:55:48.591Z,7.60
2018-05-13T04:58:16.127Z,7.40
2018-05-13T05:00:43.626Z,7.70
2018-05-13T05:03:11.156Z,7.43
2018-05-13T05:05:39.401Z,7.60
2018-05-13T05:08:06.921Z,6.80
2018-05-13T05:10:34.410Z,6.93
2018-05-13T05:13:01.936Z,6.80
2018-05-13T05:15:29.423Z,6.97
2018-05-13T05:17:57.721Z,6.87
2018-05-13T05:20:25.213Z,6.00
2018-05-13T05:22:52.730Z,5.93
2018-05-13T05:25:20.208Z,6.63
2018-05-13T05:27:47.761Z,7.33
2018-05-13T05:30:15.240Z,6.40
2018-05-13T05:32:42.730Z,6.73
2018-05-13T05:35:10.249Z,6.93
2018-05-13T05:37:37.750Z,8.67
2018-05-13T05:40:05.275Z,6.50
2018-05-13T05:42:32.761Z,8.00
2018-05-13T05:45:00.287Z,7.37
2018-05-13T05:47:27.773Z,8.07
2018-05-13T05:49:56.045Z,8.67
2018-05-13T05:52:23.528Z,7.70
2018-05-13T05:54:51.814Z,7.97
2018-05-13T05:57:19.298Z,7.47
2018-05-13T05:59:47.589Z,7.73
2018-05-13T06:02:15.838Z,7.87
2018-05-13T06:04:43.377Z,8.13
2018-05-13T06:07:10.870Z,8.03
2018-05-13T06:09:38.357Z,7.57
2018-05-13T06:12:05.875Z,8.27
2018-05-13T06:14:34.134Z,8.30
2018-05-13T06:17:01.667Z,7.80
2018-05-13T06:19:29.979Z,8.70
2018-05-13T06:21:57.563Z,8.70
2018-05-13T06:24:25.051Z,8.17
2018-05-13T06:26:52.579Z,9.17
2018-05-13T06:29:20.061Z,8.97
2018-05-13T06:31:47.648Z,8.20
2018-05-13T06:34:15.090Z,8.47
2018-05-13T06:36:42.611Z,8.63
2018-05-13T06:39:10.858Z,8.67
2018-05-13T06:41:38.387Z,8.60
2018-05-13T06:44:05.877Z,7.90
2018-05-13T06:46:33.398Z,8.73
2018-05-13T06:49:00.895Z,8.43
2018-05-13T06:51:28.416Z,9.07
2018-05-13T06:53:55.914Z,9.90
2018-05-13T06:56:23.433Z,9.00
2018-05-13T06:58:50.921Z,9.23
2018-05-13T07:01:18.410Z,9.47
2018-05-13T07:03:45.931Z,10.23
2018-05-13T07:06:13.426Z,9.10
2018-05-13T07:08:40.951Z,9.83
2018-05-13T07:11:09.197Z,9.20
2018-05-13T07:13:36.714Z,9.77
2018-05-13T07:16:04.969Z,10.43
2018-05-13T07:18:32.490Z,10.63
2018-05-13T07:20:59.982Z,10.97
2018-05-13T07:23:27.501Z,10.00
2018-05-13T07:25:54.995Z,10.33
2018-05-13T07:28:23.273Z,11.97
2018-05-13T07:30:51.521Z,12.53
2018-05-13T07:33:19.055Z,13.23
2018-05-13T07:35:46.590Z,13.40
2018-05-13T07:38:14.102Z,14.30
2018-05-13T07:40:41.582Z,17.27
2018-05-13T07:43:09.591Z,20.00
2018-05-13T07:45:37.086Z,21.00
2018-05-13T07:48:04.613Z,22.33
2018-05-13T07:50:32.101Z,23.60
2018-05-13T07:52:59.630Z,22.77
2018-05-13T07:55:27.887Z,25.70
2018-05-13T07:57:56.365Z,24.60
2018-05-13T08:00:23.995Z,27.23
2018-05-13T08:02:51.481Z,29.63
2018-05-13T08:05:19.002Z,32.17
2018-05-13T08:07:46.508Z,31.70
2018-05-13T08:10:14.038Z,34.77
2018-05-13T08:12:41.535Z,38.77
2018-05-13T08:15:09.824Z,41.23
2018-05-13T08:17:38.074Z,40.20
2018-05-13T08:20:05.615Z,42.47
2018-05-13T08:22:33.097Z,36.57
2018-05-13T08:25:00.638Z,39.43
2018-05-13T08:27:28.165Z,38.37
2018-05-13T08:29:55.666Z,40.30
2018-05-13T08:32:23.155Z,38.70
2018-05-13T08:34:50.689Z,37.80
2018-05-13T08:37:18.193Z,36.97
2018-05-13T08:39:46.450Z,38.90
2018-05-13T08:42:15.142Z,38.20
2018-05-13T08:44:42.636Z,38.87
2018-05-13T08:47:10.170Z,38.33
2018-05-13T08:49:38.426Z,39.07
2018-05-13T08:52:05.942Z,39.20
2018-05-13T08:54:33.560Z,38.63
2018-05-13T08:57:01.853Z,36.60
2018-05-13T08:59:30.101Z,39.00
2018-05-13T09:01:57.621Z,37.40
2018-05-13T09:04:25.105Z,35.17
2018-05-13T09:06:52.625Z,37.13
2018-05-13T09:09:20.110Z,39.27
2018-05-13T09:11:48.430Z,37.53
2018-05-13T09:14:15.922Z,37.40
2018-05-13T09:16:43.449Z,39.73
2018-05-13T09:19:11.702Z,36.67
2018-05-13T09:21:39.222Z,37.40
2018-05-13T09:24:06.705Z,35.13
2018-05-13T09:26:34.261Z,37.10
2018-05-13T09:29:02.498Z,36.37
2018-05-13T09:31:29.994Z,35.60
2018-05-13T09:33:57.513Z,37.67
2018-05-13T09:36:25.055Z,37.60
2018-05-13T09:38:53.347Z,38.37
2018-05-13T09:41:21.597Z,38.43
2018-05-13T09:43:49.112Z,41.70
2018-05-13T09:46:17.411Z,40.27
2018-05-13T09:48:44.929Z,43.63
2018-05-13T09:51:12.454Z,44.20
2018-05-13T09:53:39.942Z,45.73
2018-05-13T09:56:07.438Z,47.80
2018-05-13T09:58:35.725Z,47.73
2018-05-13T10:01:03.214Z,48.43
2018-05-13T10:03:30.732Z,50.17
2018-05-13T10:05:58.210Z,50.83
2018-05-13T10:08:25.729Z,50.30
2018-05-13T10:10:53.225Z,51.30
2018-05-13T10:29:09.709Z,54.53
2018-05-13T10:31:37.229Z,54.57
2018-05-13T10:34:04.718Z,51.70
2018-05-13T10:36:32.460Z,51.30
2018-05-13T10:44:45.380Z,47.90
2018-05-13T10:47:12.922Z,49.83
2018-05-13T10:49:41.183Z,48.80
2018-05-13T10:52:09.497Z,51.03
2018-05-13T10:54:37.750Z,49.30
2018-05-13T10:57:05.453Z,50.23
2018-05-13T10:59:32.941Z,49.90
2018-05-13T11:02:01.251Z,49.67
2018-05-13T11:04:28.755Z,49.70
2018-05-13T11:06:56.277Z,50.57
2018-05-13T11:09:23.775Z,46.73
2018-05-13T11:11:51.300Z,48.57
2018-05-13T11:14:18.787Z,48.57
2018-05-13T11:16:47.081Z,48.40
2018-05-13T11:19:15.366Z,48.57
2018-05-13T11:21:43.622Z,46.67
2018-05-13T11:24:11.145Z,48.03
2018-05-13T11:26:38.638Z,47.63
2018-05-13T11:29:06.161Z,53.10
2018-05-13T11:31:34.417Z,49.20
2018-05-13T11:34:02.046Z,46.77
2018-05-13T11:36:29.527Z,49.03
2018-05-13T11:38:57.049Z,48.83
2018-05-13T11:41:24.538Z,47.27
2018-05-13T11:43:52.825Z,49.77
2018-05-13T11:46:21.080Z,46.83
2018-05-13T11:48:48.609Z,47.80
2018-05-13T11:51:16.098Z,46.87
2018-05-13T11:53:45.427Z,45.60
2018-05-13T11:56:12.923Z,46.87
2018-05-13T11:58:40.446Z,43.87
2018-05-13T12:01:08.043Z,45.77
2018-05-13T12:03:35.537Z,44.57
2018-05-13T12:06:03.114Z,43.13
2018-05-13T12:08:30.733Z,42.23
2018-05-13T12:10:58.293Z,44.70
2018-05-13T12:13:26.556Z,42.83
2018-05-13T12:15:54.085Z,45.27
2018-05-13T12:18:21.623Z,41.90
2018-05-13T12:20:49.178Z,40.60
2018-05-13T12:23:17.429Z,42.73
2018-05-13T12:25:44.940Z,41.03
2018-05-13T12:28:12.434Z,43.47
2018-05-13T12:30:39.951Z,41.37
2018-05-13T12:33:07.436Z,45.00
2018-05-13T12:35:34.929Z,43.50
2018-05-13T12:38:03.221Z,43.90
2018-05-13T12:40:31.473Z,44.70
2018-05-13T12:42:59.013Z,48.43
2018-05-13T12:45:26.504Z,45.50
2018-05-13T12:47:54.034Z,46.57
2018-05-13T12:50:22.289Z,43.20
2018-05-13T12:52:49.820Z,42.93
2018-05-13T12:55:17.329Z,39.50
2018-05-13T12:57:44.861Z,40.63
2018-05-13T13:00:12.354Z,39.90
2018-05-13T13:02:39.881Z,41.70
2018-05-13T13:05:08.125Z,40.33
2018-05-13T13:07:35.743Z,40.23
2018-05-13T13:10:03.157Z,42.40
2018-05-13T13:12:30.674Z,41.10
2018-05-13T13:14:58.178Z,38.97
2018-05-13T13:17:25.693Z,40.90
2018-05-13T13:19:53.181Z,40.70
2018-05-13T13:22:21.474Z,41.47
2018-05-13T13:24:49.731Z,44.00
2018-05-13T13:27:17.292Z,40.87
2018-05-13T13:29:45.944Z,40.23
2018-05-13T13:32:13.600Z,41.60
2018-05-13T13:34:41.869Z,41.83
2018-05-13T13:37:09.359Z,43.30
2018-05-13T13:39:36.885Z,42.53
2018-05-13T13:42:04.393Z,44.93
2018-05-13T13:44:31.918Z,41.10
2018-05-13T13:46:59.429Z,44.50
2018-05-13T13:49:26.940Z,41.20
2018-05-13T13:51:54.430Z,43.47
2018-05-13T13:54:21.954Z,41.43
2018-05-13T13:56:49.438Z,41.07
2018-05-13T13:59:17.726Z,38.03
2018-05-13T14:01:45.230Z,41.80
2018-05-13T14:04:12.781Z,40.07
2018-05-13T14:06:40.278Z,38.53
2018-05-13T14:09:07.798Z,38.30
2018-05-13T14:11:35.297Z,38.23
2018-05-13T14:14:03.599Z,38.77
2018-05-13T14:16:31.189Z,40.00
2018-05-13T14:18:58.717Z,38.33
2018-05-13T14:21:26.230Z,40.70
2018-05-13T14:23:53.824Z,41.47
2018-05-13T14:26:21.509Z,37.43
2018-05-13T14:28:49.045Z,38.50
2018-05-13T14:31:16.572Z,39.80
2018-05-13T14:33:44.069Z,37.83
2018-05-13T14:36:11.609Z,40.57
2018-05-13T14:38:39.139Z,36.37
2018-05-13T14:41:06.703Z,37.70
2018-05-13T14:43:34.925Z,39.00
2018-05-13T14:46:02.447Z,39.80
2018-05-13T14:48:30.702Z,37.40
2018-05-13T14:50:58.239Z,36.03
2018-05-13T14:53:25.729Z,32.17
2018-05-13T14:55:53.263Z,32.97
2018-05-13T14:58:20.747Z,33.77
2018-05-13T15:00:48.276Z,32.07
2018-05-13T15:03:15.766Z,32.60
2018-05-13T15:05:44.090Z,33.33
2018-05-13T15:08:11.596Z,31.60
2018-05-13T15:10:39.113Z,32.80
2018-05-13T15:13:06.656Z,36.10
2018-05-13T15:15:34.909Z,34.83
2018-05-13T15:18:02.427Z,34.40
2018-05-13T15:20:29.964Z,35.97
2018-05-13T15:22:57.481Z,34.40
2018-05-13T15:25:24.961Z,36.03
2018-05-13T15:27:52.461Z,34.80
2018-05-13T15:30:19.953Z,37.30
2018-05-13T15:32:47.489Z,34.70
2018-05-13T15:35:15.145Z,32.87
2018-05-13T15:37:42.636Z,36.97
2018-05-13T15:40:10.149Z,34.10
2018-05-13T15:42:37.690Z,31.83
2018-05-13T15:45:05.549Z,32.30
2018-05-13T15:47:33.146Z,33.40
2018-05-13T15:50:01.575Z,32.97
2018-05-13T15:52:29.081Z,33.63
2018-05-13T15:54:56.669Z,32.00
2018-05-13T15:57:24.883Z,33.33
2018-05-13T15:59:52.409Z,34.73
2018-05-13T16:02:19.907Z,36.00
2018-05-13T16:04:47.425Z,34.33
2018-05-13T16:07:14.910Z,36.77
2018-05-13T16:09:42.457Z,36.90
2018-05-13T16:12:09.996Z,38.20
2018-05-13T16:14:37.489Z,36.13
2018-05-13T16:17:04.985Z,35.70
2018-05-13T16:19:32.542Z,36.67
2018-05-13T16:22:00.026Z,39.60
2018-05-13T16:24:27.518Z,37.60
2018-05-13T16:26:55.055Z,42.43
2018-05-13T16:29:22.553Z,41.67
2018-05-13T16:31:50.858Z,42.63
2018-05-13T16:34:19.109Z,44.37
2018-05-13T16:36:46.672Z,42.40
2018-05-13T16:39:14.177Z,45.43
2018-05-13T16:41:42.486Z,43.53
2018-05-13T16:44:09.989Z,45.97
2018-05-13T16:46:37.519Z,43.93
2018-05-13T16:49:05.017Z,45.97
2018-05-13T16:51:32.540Z,44.13
2018-05-13T16:54:00.795Z,45.67
2018-05-13T16:56:28.322Z,45.27
2018-05-13T16:58:55.834Z,48.40
2018-05-13T17:01:23.354Z,49.00
2018-05-13T17:03:51.649Z,46.27
2018-05-13T17:06:19.951Z,46.77
2018-05-13T17:08:47.446Z,48.00
2018-05-13T17:11:14.972Z,49.23
2018-05-13T17:13:43.225Z,48.30
2018-05-13T17:16:10.753Z,47.90
2018-05-13T17:18:38.250Z,49.47
2018-05-13T17:21:05.779Z,48.60
2018-05-13T17:23:33.312Z,49.70
2018-05-13T17:26:00.869Z,47.67
2018-05-13T17:28:29.086Z,50.17
2018-05-13T17:30:56.585Z,46.60
2018-05-13T17:33:24.870Z,48.80
2018-05-13T17:35:52.362Z,45.87
2018-05-13T17:38:19.886Z,47.23
2018-05-13T17:40:47.373Z,45.87
2018-05-13T17:43:14.904Z,46.57
2018-05-13T17:45:42.439Z,48.83
2018-05-13T17:48:09.965Z,49.20
2018-05-13T17:50:37.466Z,50.50
2018-05-13T17:53:04.988Z,51.00
2018-05-13T17:55:32.479Z,51.10
2018-05-13T17:58:00.003Z,51.67
2018-05-13T18:00:27.492Z,52.63
2018-05-13T18:02:55.042Z,51.40
2018-05-13T18:05:22.529Z,52.67
2018-05-13T18:07:50.200Z,55.27
2018-05-13T18:10:17.745Z,51.40
2018-05-13T18:12:45.235Z,56.67
2018-05-13T18:15:12.826Z,56.20
2018-05-13T18:17:40.325Z,55.60
2018-05-13T18:20:07.853Z,59.80
2018-05-13T18:22:35.350Z,56.10
2018-05-13T18:25:02.898Z,57.23
2018-05-13T18:27:30.682Z,55.90
2018-05-13T18:29:58.230Z,57.67
2018-05-13T18:32:25.755Z,58.97
2018-05-13T18:34:53.243Z,58.33
2018-05-13T18:37:22.277Z,57.80
2018-05-13T18:39:50.562Z,60.00
2018-05-13T18:42:18.814Z,61.30
2018-05-13T18:44:46.357Z,61.97
2018-05-13T18:47:13.911Z,66.07
2018-05-13T18:49:41.473Z,65.60
2018-05-13T18:52:09.005Z,62.30
2018-05-13T18:54:36.539Z,62.73
2018-05-13T18:57:19.692Z,65.53
2018-05-13T18:59:47.181Z,66.07
2018-05-13T19:02:14.712Z,67.73
2018-05-13T19:04:42.202Z,66.90
2018-05-13T19:07:09.781Z,68.60
2018-05-13T19:09:37.287Z,71.47
2018-05-13T19:12:05.379Z,73.53
2018-05-13T19:14:33.694Z,69.03
2018-05-13T19:17:01.987Z,72.90
2018-05-13T19:19:30.267Z,71.67
2018-05-13T19:21:58.571Z,70.83
2018-05-13T19:24:26.077Z,70.07
2018-05-13T19:26:53.602Z,66.17
2018-05-13T19:29:21.876Z,64.87
2018-05-13T19:31:49.509Z,68.93
2018-05-13T19:34:16.985Z,64.80
2018-05-13T19:36:44.605Z,68.53
2018-05-13T19:39:12.094Z,64.73
2018-05-13T19:41:39.602Z,65.77
2018-05-13T19:44:07.138Z,66.63
2018-05-13T19:46:34.649Z,65.53
2018-05-13T19:49:02.173Z,67.20
2018-05-13T19:51:30.426Z,66.33
2018-05-13T19:53:58.144Z,66.47
2018-05-13T19:56:25.646Z,68.83
2018-05-13T19:58:53.189Z,68.77
2018-05-13T20:01:20.678Z,71.17
2018-05-13T20:03:48.295Z,68.90
2018-05-13T20:06:16.475Z,68.60
2018-05-13T20:08:44.005Z,64.80
2018-05-13T20:11:12.817Z,68.07
2018-05-13T20:13:40.421Z,70.30
2018-05-13T20:16:07.915Z,65.40
2018-05-13T20:18:36.214Z,66.37
2018-05-13T20:21:03.709Z,70.00
2018-05-13T20:23:31.239Z,70.33
2018-05-13T20:25:58.738Z,68.57
2018-05-13T20:28:26.213Z,66.10
2018-05-13T20:30:53.756Z,66.77
2018-05-13T20:33:21.257Z,64.17
2018-05-13T20:35:48.761Z,69.70
2018-05-13T20:38:16.282Z,66.60
2018-05-13T20:40:44.586Z,68.90
2018-05-13T20:43:12.078Z,71.07
2018-05-13T20:45:39.601Z,66.00
2018-05-13T20:48:07.089Z,72.13
2018-05-13T20:50:34.617Z,71.23
2018-05-13T20:53:02.117Z,69.10
2018-05-13T20:55:29.629Z,74.67
2018-05-13T20:57:57.141Z,70.50
2018-05-13T21:00:24.685Z,75.17
2018-05-13T21:02:52.181Z,74.33
2018-05-13T21:05:19.757Z,71.00
2018-05-13T21:07:47.222Z,75.07
2018-05-13T21:10:14.749Z,72.93
2018-05-13T21:12:42.253Z,71.90
2018-05-13T21:15:09.778Z,71.40
2018-05-13T21:17:37.274Z,76.07
2018-05-13T21:20:04.821Z,71.57
2018-05-13T21:22:33.078Z,69.37
2018-05-13T21:25:00.613Z,74.87
2018-05-13T21:27:28.116Z,75.93
2018-05-13T21:29:55.658Z,71.27
2018-05-13T21:32:23.151Z,76.47
2018-05-13T21:34:50.645Z,79.80
2018-05-13T21:37:18.165Z,79.57
2018-05-13T21:39:45.654Z,81.47
2018-05-13T21:42:13.174Z,83.20
2018-05-13T21:44:40.664Z,87.27
2018-05-13T21:47:08.221Z,89.50
2018-05-13T21:49:35.713Z,88.50
2018-05-13T21:52:03.262Z,88.07
2018-05-13T21:54:31.547Z,84.37
2018-05-13T21:56:59.058Z,87.57
2018-05-13T21:59:26.551Z,87.77
2018-05-13T22:01:54.094Z,86.77
2018-05-13T22:04:21.584Z,89.97
2018-05-13T22:06:49.110Z,89.00
2018-05-13T22:09:17.366Z,87.77
2018-05-13T22:11:44.892Z,87.07
2018-05-13T22:14:12.381Z,93.70
2018-05-13T22:16:39.910Z,92.90
2018-05-13T22:19:08.181Z,91.13
2018-05-13T22:21:35.733Z,91.80
2018-05-13T22:24:03.225Z,89.20
2018-05-13T22:26:30.718Z,95.20
2018-05-13T22:28:59.002Z,93.13
2018-05-13T22:31:26.493Z,87.40
2018-05-13T22:33:54.016Z,87.10
2018-05-13T22:36:21.510Z,90.80
2018-05-13T22:38:49.046Z,88.53
2018-05-13T22:41:16.629Z,89.93
2018-05-13T22:43:44.605Z,89.40
2018-05-13T22:46:12.106Z,87.97
2018-05-13T22:48:39.796Z,87.17
2018-05-13T22:51:08.055Z,88.27
2018-05-13T22:53:35.586Z,88.13
2018-05-13T22:56:03.079Z,83.57
2018-05-13T22:58:30.679Z,85.70
2018-05-13T23:00:58.115Z,83.23
2018-05-13T23:03:25.637Z,85.00
2018-05-13T23:05:53.917Z,89.20
2018-05-13T23:08:21.441Z,86.07
2018-05-13T23:10:48.932Z,83.03
2018-05-13T23:13:16.473Z,84.00
2018-05-13T23:15:43.961Z,85.73
2018-05-13T23:18:11.466Z,83.87
2018-05-13T23:20:39.009Z,82.80
2018-05-13T23:23:06.516Z,85.50
2018-05-13T23:25:34.062Z,84.00
2018-05-13T23:28:01.558Z,84.77
2018-05-13T23:30:29.074Z,81.37
2018-05-13T23:32:56.579Z,83.63
2018-05-13T23:35:24.073Z,89.37
2018-05-13T23:37:51.616Z,88.03
2018-05-13T23:40:19.145Z,82.93
2018-05-13T23:42:46.632Z,83.30
2018-05-13T23:45:14.161Z,88.07
2018-05-13T23:47:41.650Z,85.97
2018-05-13T23:50:09.181Z,86.83
2018-05-13T23:52:36.665Z,89.67
2018-05-13T23:55:04.202Z,87.80
2018-05-13T23:57:31.686Z,89.90
2018-05-13T23:59:59.214Z,90.77
